createdAt,value
2019-01-16T19:45:01.868Z,6.30
2019-01-16T20:31:00.600Z,5.90
2019-01-16T20:34:33.760Z,5.90
2019-01-16T20:42:18.298Z,5.90
2019-01-16T20:50:19.850Z,5.80
2019-01-16T20:52:57.198Z,5.90
2019-01-16T20:55:34.602Z,5.80
2019-01-16T20:58:14.171Z,5.80
2019-01-16T21:01:01.441Z,5.80
2019-01-16T21:03:41.657Z,5.80
2019-01-16T21:06:47.665Z,5.80
2019-01-16T21:09:25.601Z,5.70
2019-01-16T21:12:00.171Z,5.70
2019-01-16T21:14:37.465Z,5.70
2019-01-16T21:17:14.305Z,5.70
2019-01-16T21:19:51.121Z,5.70
2019-01-16T21:22:26.857Z,5.70
2019-01-16T21:25:03.373Z,5.60
2019-01-16T21:27:40.248Z,5.60
2019-01-16T21:30:18.692Z,5.60
2019-01-16T21:33:12.604Z,5.50
2019-01-16T21:35:53.618Z,5.50
2019-01-16T21:38:31.731Z,5.40
2019-01-16T21:41:11.434Z,5.30
2019-01-16T21:43:49.785Z,5.20
2019-01-16T21:46:33.008Z,5.20
2019-01-16T21:53:53.503Z,5.20
2019-01-16T22:04:32.972Z,5.00
2019-01-16T22:23:42.805Z,4.90
2019-01-16T22:27:17.951Z,4.70
2019-01-16T22:29:57.382Z,4.70
2019-01-16T22:33:36.135Z,4.70
2019-01-16T22:36:09.946Z,4.60
2019-01-16T22:38:45.044Z,4.60
2019-01-16T22:41:25.397Z,4.60
2019-01-16T22:45:09.498Z,4.60
2019-01-16T22:47:49.202Z,4.50
2019-01-16T22:50:23.545Z,4.50
2019-01-16T22:53:00.268Z,4.50
2019-01-16T22:57:39.040Z,4.40
2019-01-16T23:00:22.162Z,4.40
2019-01-16T23:02:55.383Z,4.40
2019-01-16T23:07:35.106Z,4.40
2019-01-16T23:10:12.603Z,4.40
2019-01-16T23:12:46.891Z,4.30
2019-01-16T23:15:22.187Z,4.30
2019-01-16T23:17:56.709Z,4.30
2019-01-16T23:20:30.989Z,4.30
2019-01-16T23:25:12.540Z,4.20
2019-01-16T23:27:46.829Z,4.30
2019-01-16T23:30:35.105Z,4.20
2019-01-16T23:34:16.619Z,4.20
2019-01-16T23:36:50.074Z,4.20
2019-01-16T23:39:25.337Z,4.20
2019-01-16T23:42:00.472Z,4.20
2019-01-16T23:44:40.624Z,4.20
2019-01-16T23:47:19.063Z,4.20
2019-01-16T23:50:24.506Z,4.20
2019-01-16T23:52:58.710Z,4.20
2019-01-16T23:55:32.916Z,4.10
2019-01-16T23:58:07.239Z,4.10
